sensor_id;sensor_type;location;lat;lon;timestamp;P1;durP1;ratioP1;P2;durP2;ratioP2
53642;SDS011;39546;45.534;12.048;2024-01-30T00:00:38;52.33;;;47.42;;
53642;SDS011;39546;45.534;12.048;2024-01-30T00:06:40;39.13;;;31.55;;
53642;SDS011;39546;45.534;12.048;2024-01-30T00:12:41;43.55;;;39.42;;
53642;SDS011;39546;45.534;12.048;2024-01-30T00:18:43;44.65;;;40.65;;
53642;SDS011;39546;45.534;12.048;2024-01-30T00:24:45;44.05;;;35.17;;
53642;SDS011;39546;45.534;12.048;2024-01-30T00:30:46;48.30;;;42.58;;
53642;SDS011;39546;45.534;12.048;2024-01-30T00:36:48;41.38;;;37.05;;
53642;SDS011;39546;45.534;12.048;2024-01-30T00:42:49;37.70;;;34.00;;
53642;SDS011;39546;45.534;12.048;2024-01-30T00:48:51;45.83;;;41.60;;
53642;SDS011;39546;45.534;12.048;2024-01-30T00:54:52;63.50;;;57.75;;
53642;SDS011;39546;45.534;12.048;2024-01-30T01:00:54;38.63;;;30.58;;
53642;SDS011;39546;45.534;12.048;2024-01-30T01:06:55;60.83;;;55.30;;
53642;SDS011;39546;45.534;12.048;2024-01-30T01:12:57;36.53;;;31.27;;
53642;SDS011;39546;45.534;12.048;2024-01-30T01:18:58;45.58;;;41.22;;
53642;SDS011;39546;45.534;12.048;2024-01-30T01:25:01;40.97;;;37.13;;
53642;SDS011;39546;45.534;12.048;2024-01-30T01:31:02;32.28;;;28.30;;
53642;SDS011;39546;45.534;12.048;2024-01-30T01:37:06;31.45;;;28.52;;
53642;SDS011;39546;45.534;12.048;2024-01-30T01:43:08;31.25;;;28.27;;
53642;SDS011;39546;45.534;12.048;2024-01-30T01:49:10;36.08;;;33.03;;
53642;SDS011;39546;45.534;12.048;2024-01-30T01:55:12;31.60;;;28.70;;
53642;SDS011;39546;45.534;12.048;2024-01-30T02:01:14;24.00;;;21.70;;
53642;SDS011;39546;45.534;12.048;2024-01-30T02:07:19;27.95;;;25.50;;
53642;SDS011;39546;45.534;12.048;2024-01-30T02:13:21;18.50;;;16.60;;
53642;SDS011;39546;45.534;12.048;2024-01-30T02:19:23;19.38;;;16.08;;
53642;SDS011;39546;45.534;12.048;2024-01-30T02:25:31;18.05;;;16.05;;
53642;SDS011;39546;45.534;12.048;2024-01-30T02:31:36;16.98;;;15.13;;
53642;SDS011;39546;45.534;12.048;2024-01-30T02:37:38;22.20;;;18.13;;
53642;SDS011;39546;45.534;12.048;2024-01-30T02:43:40;12.57;;;11.10;;
53642;SDS011;39546;45.534;12.048;2024-01-30T02:49:41;19.30;;;16.63;;
53642;SDS011;39546;45.534;12.048;2024-01-30T02:55:43;15.52;;;13.25;;
53642;SDS011;39546;45.534;12.048;2024-01-30T03:01:44;17.40;;;14.77;;
53642;SDS011;39546;45.534;12.048;2024-01-30T03:07:47;15.45;;;13.75;;
53642;SDS011;39546;45.534;12.048;2024-01-30T03:13:49;16.38;;;14.57;;
53642;SDS011;39546;45.534;12.048;2024-01-30T03:19:50;17.20;;;15.43;;
53642;SDS011;39546;45.534;12.048;2024-01-30T03:25:52;23.65;;;21.13;;
53642;SDS011;39546;45.534;12.048;2024-01-30T03:31:54;19.48;;;17.48;;
53642;SDS011;39546;45.534;12.048;2024-01-30T03:37:55;21.98;;;19.70;;
53642;SDS011;39546;45.534;12.048;2024-01-30T03:43:57;17.88;;;16.08;;
53642;SDS011;39546;45.534;12.048;2024-01-30T03:49:59;15.98;;;13.45;;
53642;SDS011;39546;45.534;12.048;2024-01-30T03:56:00;21.33;;;15.95;;
53642;SDS011;39546;45.534;12.048;2024-01-30T04:02:02;17.23;;;13.48;;
53642;SDS011;39546;45.534;12.048;2024-01-30T04:08:04;15.07;;;13.57;;
53642;SDS011;39546;45.534;12.048;2024-01-30T04:14:06;18.00;;;15.05;;
53642;SDS011;39546;45.534;12.048;2024-01-30T04:20:07;15.73;;;13.50;;
53642;SDS011;39546;45.534;12.048;2024-01-30T04:26:13;21.63;;;18.83;;
53642;SDS011;39546;45.534;12.048;2024-01-30T04:32:14;22.05;;;19.08;;
53642;SDS011;39546;45.534;12.048;2024-01-30T04:38:16;22.05;;;19.58;;
53642;SDS011;39546;45.534;12.048;2024-01-30T04:44:18;16.40;;;13.75;;
53642;SDS011;39546;45.534;12.048;2024-01-30T04:50:20;18.73;;;15.90;;
53642;SDS011;39546;45.534;12.048;2024-01-30T04:56:21;18.70;;;15.32;;
53642;SDS011;39546;45.534;12.048;2024-01-30T05:02:23;16.38;;;14.00;;
53642;SDS011;39546;45.534;12.048;2024-01-30T05:08:25;17.23;;;15.30;;
53642;SDS011;39546;45.534;12.048;2024-01-30T05:14:26;16.92;;;15.13;;
53642;SDS011;39546;45.534;12.048;2024-01-30T05:20:28;18.02;;;15.35;;
53642;SDS011;39546;45.534;12.048;2024-01-30T05:26:29;18.95;;;14.40;;
53642;SDS011;39546;45.534;12.048;2024-01-30T05:32:31;17.83;;;15.75;;
53642;SDS011;39546;45.534;12.048;2024-01-30T05:38:32;21.05;;;17.85;;
53642;SDS011;39546;45.534;12.048;2024-01-30T05:44:34;18.77;;;16.77;;
53642;SDS011;39546;45.534;12.048;2024-01-30T05:50:36;16.73;;;14.98;;
53642;SDS011;39546;45.534;12.048;2024-01-30T05:56:38;16.13;;;14.57;;
53642;SDS011;39546;45.534;12.048;2024-01-30T06:09:00;20.55;;;15.15;;
53642;SDS011;39546;45.534;12.048;2024-01-30T06:15:02;21.00;;;17.42;;
53642;SDS011;39546;45.534;12.048;2024-01-30T06:21:04;24.45;;;20.65;;
53642;SDS011;39546;45.534;12.048;2024-01-30T06:27:06;19.73;;;17.15;;
53642;SDS011;39546;45.534;12.048;2024-01-30T06:33:07;17.60;;;14.30;;
53642;SDS011;39546;45.534;12.048;2024-01-30T06:39:09;19.63;;;16.38;;
53642;SDS011;39546;45.534;12.048;2024-01-30T06:45:11;19.52;;;16.08;;
53642;SDS011;39546;45.534;12.048;2024-01-30T06:51:12;21.05;;;15.70;;
53642;SDS011;39546;45.534;12.048;2024-01-30T06:57:14;21.63;;;15.38;;
53642;SDS011;39546;45.534;12.048;2024-01-30T07:03:16;17.77;;;14.55;;
53642;SDS011;39546;45.534;12.048;2024-01-30T07:09:17;18.13;;;15.35;;
53642;SDS011;39546;45.534;12.048;2024-01-30T07:15:19;20.98;;;17.48;;
53642;SDS011;39546;45.534;12.048;2024-01-30T07:21:21;24.33;;;20.02;;
53642;SDS011;39546;45.534;12.048;2024-01-30T07:27:28;24.50;;;18.52;;
53642;SDS011;39546;45.534;12.048;2024-01-30T07:33:30;23.10;;;18.40;;
53642;SDS011;39546;45.534;12.048;2024-01-30T07:39:31;18.77;;;16.73;;
53642;SDS011;39546;45.534;12.048;2024-01-30T07:45:33;18.27;;;15.57;;
53642;SDS011;39546;45.534;12.048;2024-01-30T07:51:34;16.85;;;14.02;;
53642;SDS011;39546;45.534;12.048;2024-01-30T07:57:38;18.02;;;15.95;;
53642;SDS011;39546;45.534;12.048;2024-01-30T08:03:40;15.85;;;13.68;;
53642;SDS011;39546;45.534;12.048;2024-01-30T08:09:42;23.70;;;19.20;;
53642;SDS011;39546;45.534;12.048;2024-01-30T08:15:45;21.92;;;17.35;;
53642;SDS011;39546;45.534;12.048;2024-01-30T08:21:46;24.23;;;18.30;;
53642;SDS011;39546;45.534;12.048;2024-01-30T08:27:48;24.83;;;16.48;;
53642;SDS011;39546;45.534;12.048;2024-01-30T08:33:52;21.17;;;16.70;;
53642;SDS011;39546;45.534;12.048;2024-01-30T08:39:53;24.27;;;18.98;;
53642;SDS011;39546;45.534;12.048;2024-01-30T08:45:55;25.60;;;22.80;;
53642;SDS011;39546;45.534;12.048;2024-01-30T08:51:59;20.48;;;18.50;;
53642;SDS011;39546;45.534;12.048;2024-01-30T08:58:01;22.60;;;18.85;;
53642;SDS011;39546;45.534;12.048;2024-01-30T09:04:04;22.95;;;20.67;;
53642;SDS011;39546;45.534;12.048;2024-01-30T09:10:06;33.22;;;30.20;;
53642;SDS011;39546;45.534;12.048;2024-01-30T09:16:08;36.30;;;33.67;;
53642;SDS011;39546;45.534;12.048;2024-01-30T09:22:09;46.72;;;43.47;;
53642;SDS011;39546;45.534;12.048;2024-01-30T09:28:11;34.75;;;32.17;;
53642;SDS011;39546;45.534;12.048;2024-01-30T09:40:36;46.00;;;42.67;;
53642;SDS011;39546;45.534;12.048;2024-01-30T09:46:38;35.97;;;32.92;;
53642;SDS011;39546;45.534;12.048;2024-01-30T09:52:41;44.85;;;41.25;;
53642;SDS011;39546;45.534;12.048;2024-01-30T09:58:45;31.52;;;27.80;;
53642;SDS011;39546;45.534;12.048;2024-01-30T10:04:47;40.38;;;35.92;;
53642;SDS011;39546;45.534;12.048;2024-01-30T10:10:50;47.20;;;43.72;;
53642;SDS011;39546;45.534;12.048;2024-01-30T10:16:52;27.98;;;25.35;;
53642;SDS011;39546;45.534;12.048;2024-01-30T10:22:54;46.15;;;42.47;;
53642;SDS011;39546;45.534;12.048;2024-01-30T10:28:55;32.65;;;29.98;;
53642;SDS011;39546;45.534;12.048;2024-01-30T10:34:57;46.85;;;42.72;;
53642;SDS011;39546;45.534;12.048;2024-01-30T10:41:06;36.90;;;33.20;;
53642;SDS011;39546;45.534;12.048;2024-01-30T10:47:18;64.90;;;59.10;;
53642;SDS011;39546;45.534;12.048;2024-01-30T10:53:25;60.53;;;55.72;;
53642;SDS011;39546;45.534;12.048;2024-01-30T10:59:28;46.05;;;42.33;;
53642;SDS011;39546;45.534;12.048;2024-01-30T11:05:31;57.13;;;52.60;;
53642;SDS011;39546;45.534;12.048;2024-01-30T11:18:02;60.55;;;56.08;;
53642;SDS011;39546;45.534;12.048;2024-01-30T11:24:04;40.35;;;37.25;;
53642;SDS011;39546;45.534;12.048;2024-01-30T11:30:07;37.40;;;34.72;;
53642;SDS011;39546;45.534;12.048;2024-01-30T11:36:10;59.78;;;56.28;;
53642;SDS011;39546;45.534;12.048;2024-01-30T11:42:16;71.70;;;67.53;;
53642;SDS011;39546;45.534;12.048;2024-01-30T11:48:18;96.10;;;91.35;;
53642;SDS011;39546;45.534;12.048;2024-01-30T11:54:20;117.05;;;111.50;;
53642;SDS011;39546;45.534;12.048;2024-01-30T12:00:22;112.72;;;107.43;;
53642;SDS011;39546;45.534;12.048;2024-01-30T12:06:24;132.07;;;125.90;;
53642;SDS011;39546;45.534;12.048;2024-01-30T12:12:26;102.53;;;97.57;;
53642;SDS011;39546;45.534;12.048;2024-01-30T12:18:29;100.97;;;96.15;;
53642;SDS011;39546;45.534;12.048;2024-01-30T12:24:31;91.13;;;86.32;;
53642;SDS011;39546;45.534;12.048;2024-01-30T12:30:34;107.32;;;102.60;;
53642;SDS011;39546;45.534;12.048;2024-01-30T12:36:38;91.28;;;86.88;;
53642;SDS011;39546;45.534;12.048;2024-01-30T12:42:40;101.20;;;96.45;;
53642;SDS011;39546;45.534;12.048;2024-01-30T12:48:47;108.13;;;103.05;;
53642;SDS011;39546;45.534;12.048;2024-01-30T12:54:49;91.70;;;86.65;;
53642;SDS011;39546;45.534;12.048;2024-01-30T13:01:00;82.15;;;77.53;;
53642;SDS011;39546;45.534;12.048;2024-01-30T13:07:16;124.35;;;118.18;;
53642;SDS011;39546;45.534;12.048;2024-01-30T13:13:20;86.35;;;81.90;;
53642;SDS011;39546;45.534;12.048;2024-01-30T13:32:12;98.78;;;94.20;;
53642;SDS011;39546;45.534;12.048;2024-01-30T13:38:13;70.65;;;66.70;;
53642;SDS011;39546;45.534;12.048;2024-01-30T13:44:18;42.15;;;39.35;;
53642;SDS011;39546;45.534;12.048;2024-01-30T13:50:24;40.97;;;38.25;;
53642;SDS011;39546;45.534;12.048;2024-01-30T13:56:26;30.75;;;28.65;;
53642;SDS011;39546;45.534;12.048;2024-01-30T14:02:28;34.50;;;32.03;;
53642;SDS011;39546;45.534;12.048;2024-01-30T14:08:30;16.20;;;14.60;;
53642;SDS011;39546;45.534;12.048;2024-01-30T14:14:33;14.77;;;12.40;;
53642;SDS011;39546;45.534;12.048;2024-01-30T14:20:42;26.48;;;23.63;;
53642;SDS011;39546;45.534;12.048;2024-01-30T14:26:45;21.23;;;18.38;;
53642;SDS011;39546;45.534;12.048;2024-01-30T14:32:59;19.63;;;14.35;;
53642;SDS011;39546;45.534;12.048;2024-01-30T14:39:03;14.40;;;11.52;;
53642;SDS011;39546;45.534;12.048;2024-01-30T14:45:05;16.77;;;15.02;;
53642;SDS011;39546;45.534;12.048;2024-01-30T14:51:08;19.83;;;16.25;;
53642;SDS011;39546;45.534;12.048;2024-01-30T14:57:10;20.60;;;15.85;;
53642;SDS011;39546;45.534;12.048;2024-01-30T15:03:12;18.77;;;16.75;;
53642;SDS011;39546;45.534;12.048;2024-01-30T15:09:14;19.60;;;17.30;;
53642;SDS011;39546;45.534;12.048;2024-01-30T15:15:16;18.05;;;16.00;;
53642;SDS011;39546;45.534;12.048;2024-01-30T15:21:18;23.15;;;16.95;;
53642;SDS011;39546;45.534;12.048;2024-01-30T15:27:23;25.00;;;19.40;;
53642;SDS011;39546;45.534;12.048;2024-01-30T15:33:28;16.70;;;13.52;;
53642;SDS011;39546;45.534;12.048;2024-01-30T15:39:29;21.52;;;17.38;;
53642;SDS011;39546;45.534;12.048;2024-01-30T15:45:31;19.98;;;17.88;;
53642;SDS011;39546;45.534;12.048;2024-01-30T15:51:33;22.33;;;18.80;;
53642;SDS011;39546;45.534;12.048;2024-01-30T15:57:35;31.52;;;26.38;;
53642;SDS011;39546;45.534;12.048;2024-01-30T16:03:38;52.30;;;48.95;;
53642;SDS011;39546;45.534;12.048;2024-01-30T16:09:52;78.90;;;73.93;;
53642;SDS011;39546;45.534;12.048;2024-01-30T16:15:54;102.65;;;97.03;;
53642;SDS011;39546;45.534;12.048;2024-01-30T16:21:58;111.75;;;105.82;;
53642;SDS011;39546;45.534;12.048;2024-01-30T16:28:00;114.30;;;108.55;;
53642;SDS011;39546;45.534;12.048;2024-01-30T16:34:01;151.15;;;143.52;;
53642;SDS011;39546;45.534;12.048;2024-01-30T16:40:04;38.40;;;34.03;;
53642;SDS011;39546;45.534;12.048;2024-01-30T16:46:06;178.02;;;169.40;;
53642;SDS011;39546;45.534;12.048;2024-01-30T16:52:07;158.82;;;150.23;;
53642;SDS011;39546;45.534;12.048;2024-01-30T16:58:09;83.35;;;78.55;;
53642;SDS011;39546;45.534;12.048;2024-01-30T17:04:14;61.25;;;56.58;;
53642;SDS011;39546;45.534;12.048;2024-01-30T17:10:17;122.22;;;115.10;;
53642;SDS011;39546;45.534;12.048;2024-01-30T17:16:20;75.70;;;69.78;;
53642;SDS011;39546;45.534;12.048;2024-01-30T17:22:21;79.63;;;74.07;;
53642;SDS011;39546;45.534;12.048;2024-01-30T17:28:23;71.45;;;66.45;;
53642;SDS011;39546;45.534;12.048;2024-01-30T17:34:24;92.80;;;86.22;;
53642;SDS011;39546;45.534;12.048;2024-01-30T17:40:27;70.82;;;65.45;;
53642;SDS011;39546;45.534;12.048;2024-01-30T17:46:28;76.13;;;70.40;;
53642;SDS011;39546;45.534;12.048;2024-01-30T17:58:50;54.35;;;49.97;;
53642;SDS011;39546;45.534;12.048;2024-01-30T18:04:52;32.28;;;29.05;;
53642;SDS011;39546;45.534;12.048;2024-01-30T18:10:53;34.20;;;28.80;;
53642;SDS011;39546;45.534;12.048;2024-01-30T18:17:27;30.52;;;25.58;;
53642;SDS011;39546;45.534;12.048;2024-01-30T18:23:29;33.20;;;25.52;;
53642;SDS011;39546;45.534;12.048;2024-01-30T18:29:31;35.53;;;31.80;;
53642;SDS011;39546;45.534;12.048;2024-01-30T18:35:33;28.15;;;22.40;;
53642;SDS011;39546;45.534;12.048;2024-01-30T18:41:42;41.72;;;34.60;;
53642;SDS011;39546;45.534;12.048;2024-01-30T18:47:44;32.20;;;24.92;;
53642;SDS011;39546;45.534;12.048;2024-01-30T18:53:46;47.05;;;40.95;;
53642;SDS011;39546;45.534;12.048;2024-01-30T18:59:48;47.50;;;38.80;;
53642;SDS011;39546;45.534;12.048;2024-01-30T19:05:50;42.55;;;37.03;;
53642;SDS011;39546;45.534;12.048;2024-01-30T19:11:52;41.33;;;35.00;;
53642;SDS011;39546;45.534;12.048;2024-01-30T19:17:54;48.17;;;42.90;;
53642;SDS011;39546;45.534;12.048;2024-01-30T19:23:56;49.65;;;37.67;;
53642;SDS011;39546;45.534;12.048;2024-01-30T19:30:00;44.70;;;33.83;;
53642;SDS011;39546;45.534;12.048;2024-01-30T19:36:01;45.17;;;35.33;;
53642;SDS011;39546;45.534;12.048;2024-01-30T19:42:04;50.45;;;41.63;;
53642;SDS011;39546;45.534;12.048;2024-01-30T19:48:06;56.75;;;42.72;;
53642;SDS011;39546;45.534;12.048;2024-01-30T19:54:10;54.30;;;45.42;;
53642;SDS011;39546;45.534;12.048;2024-01-30T20:00:17;51.30;;;43.35;;
53642;SDS011;39546;45.534;12.048;2024-01-30T20:06:19;48.53;;;39.63;;
53642;SDS011;39546;45.534;12.048;2024-01-30T20:12:21;42.38;;;34.47;;
53642;SDS011;39546;45.534;12.048;2024-01-30T20:18:29;40.88;;;33.30;;
53642;SDS011;39546;45.534;12.048;2024-01-30T20:24:32;41.75;;;37.53;;
53642;SDS011;39546;45.534;12.048;2024-01-30T20:30:34;49.05;;;41.85;;
53642;SDS011;39546;45.534;12.048;2024-01-30T20:36:36;36.72;;;31.35;;
53642;SDS011;39546;45.534;12.048;2024-01-30T20:42:37;37.95;;;32.63;;
53642;SDS011;39546;45.534;12.048;2024-01-30T20:48:39;42.15;;;36.40;;
53642;SDS011;39546;45.534;12.048;2024-01-30T20:54:44;49.15;;;43.80;;
53642;SDS011;39546;45.534;12.048;2024-01-30T21:00:46;36.78;;;31.10;;
53642;SDS011;39546;45.534;12.048;2024-01-30T21:06:48;43.50;;;39.28;;
53642;SDS011;39546;45.534;12.048;2024-01-30T21:12:49;59.70;;;54.22;;
53642;SDS011;39546;45.534;12.048;2024-01-30T21:18:52;52.33;;;46.97;;
53642;SDS011;39546;45.534;12.048;2024-01-30T21:24:53;43.78;;;35.35;;
53642;SDS011;39546;45.534;12.048;2024-01-30T21:30:55;41.03;;;35.08;;
53642;SDS011;39546;45.534;12.048;2024-01-30T21:36:57;39.10;;;34.65;;
53642;SDS011;39546;45.534;12.048;2024-01-30T21:42:59;49.63;;;45.00;;
53642;SDS011;39546;45.534;12.048;2024-01-30T21:49:27;35.17;;;31.40;;
53642;SDS011;39546;45.534;12.048;2024-01-30T21:55:29;47.80;;;42.97;;
53642;SDS011;39546;45.534;12.048;2024-01-30T22:01:48;39.90;;;36.08;;
53642;SDS011;39546;45.534;12.048;2024-01-30T22:07:49;36.90;;;33.07;;
53642;SDS011;39546;45.534;12.048;2024-01-30T22:13:51;42.03;;;37.92;;
53642;SDS011;39546;45.534;12.048;2024-01-30T22:19:54;54.42;;;49.13;;
53642;SDS011;39546;45.534;12.048;2024-01-30T22:25:58;50.75;;;46.38;;
53642;SDS011;39546;45.534;12.048;2024-01-30T22:31:59;39.03;;;35.05;;
53642;SDS011;39546;45.534;12.048;2024-01-30T22:38:03;42.53;;;38.08;;
53642;SDS011;39546;45.534;12.048;2024-01-30T22:44:08;50.83;;;46.53;;
53642;SDS011;39546;45.534;12.048;2024-01-30T22:50:09;47.72;;;43.60;;
53642;SDS011;39546;45.534;12.048;2024-01-30T22:56:12;39.80;;;36.25;;
53642;SDS011;39546;45.534;12.048;2024-01-30T23:02:13;44.88;;;40.53;;
53642;SDS011;39546;45.534;12.048;2024-01-30T23:08:16;50.22;;;46.00;;
53642;SDS011;39546;45.534;12.048;2024-01-30T23:14:17;49.05;;;44.72;;
53642;SDS011;39546;45.534;12.048;2024-01-30T23:20:19;43.67;;;39.45;;
53642;SDS011;39546;45.534;12.048;2024-01-30T23:26:20;49.03;;;44.75;;
53642;SDS011;39546;45.534;12.048;2024-01-30T23:32:22;46.88;;;42.72;;
53642;SDS011;39546;45.534;12.048;2024-01-30T23:38:24;51.10;;;46.53;;
53642;SDS011;39546;45.534;12.048;2024-01-30T23:44:25;69.10;;;63.25;;
53642;SDS011;39546;45.534;12.048;2024-01-30T23:50:27;38.15;;;34.33;;
53642;SDS011;39546;45.534;12.048;2024-01-30T23:56:29;37.10;;;33.17;;
